Sutton, ND

06:48 AM CDT die 28o April, anno 2015 (GMT -0500)
Jamestown Municipal | | Change Station
CLOSE
Current Station
Airport
Location: Jamestown,
Elevation: 1499 ft
Nearby Weather Stations

Elev 1499 ft 46.93 °N, 98.67 °W | Updated 52 minutes ago

Partialiter Nubila
Partialiter Nubila
36 °F
Feels Like 31 °F
N
6
Ventus Variabilis Ventus from Magis Zephyrus quam Aquilo

Hodie
High -- | Low -- °F
--% Chance of Precip.
Yesterday
High -- | Low -- °F
Precip. -- in
6:22 AM 8:40 PM
Waxing Gibbous, 73% visible
Pressio 30.31 in
Visibilitas 8.0 milia passuum
Clouds Serena
Frigus Venti 31 °F
Frigus in quo Ros apparet 34 °F
Umor 93%
Rainfall 0.00 in
Snow Depth Not available.
UV 0 out of 12
Pollen 9.80 out of 12
Air Quality Not available.
Flu Activity Regional
METAR KJMS 281056Z AUTO 30005KT 8SM CLR 02/01 A3028 RMK AO2 SLP264 T00220011

More Conditions Fewer Conditions

Pressio 30.31 in
Visibilitas 8.0 milia passuum
Clouds Serena
Frigus Venti 31 °F
Frigus in quo Ros apparet 34 °F
Umor 93%
Rainfall 0.00 in
Snow Depth Not available.
UV 0 out of 12
Pollen 9.80 out of 12
Air Quality Not available.
Flu Activity Regional
METAR KJMS 281056Z AUTO 30005KT 8SM CLR 02/01 A3028 RMK AO2 SLP264 T00220011

More Conditions Fewer Conditions

10-Day Weather Forecast

Almanac

Astronomy

Apr. 28, 2015 Rise Set
Actual Time
Civil Twilight
Nautical Twilight
Astronomical Twilight
Moon
Length Of Visible Light
Length of Day
Tomorrow will be .
, % of the Moon is Illuminated

Today's Extremes

State Highs State Lows

Community

WunderPhotos

Upload Photos

1,817,610 photos uploaded!

WunderBlogs® & News

Nearby

Air Quality

  Air Quality AQ Index Pollutant
Not available.

Snow Depth

Station Depth Elevation

Earthquake Activity

City Distance Mag. Time & Date
Minimum magnitude displayed is 2.5.

Coastal Water Temperatures

Locus Calor

Stations

Nearby Weather Stations

Station Location Temp Frigus Venti Frigus in quo Ros apparet Umor Ventus Precip. Elev Renovata Type